AirNav   Free Bose QuietComfort 20
 
 581 users online  

24FD Poinciana Medical Center Heliport
Poinciana, Florida, USA

GOING TO POINCIANA?


FAA INFORMATION EFFECTIVE 05 DECEMBER 2019

Location

FAA Identifier: 24FD
Lat/Long: 28-08-41.0000N 081-28-32.0000W
28-08.683333N 081-28.533333W
28.1447222,-81.4755556
(estimated)
Elevation: 75 ft. / 23 m
From city: 1 mile NNE of POINCIANA, FL
Time zone: UTC -5 (UTC -4 during Daylight Saving Time)
Zip code: 34759

Heliport Operations

Heliport use: Private use. Permission required prior to landing
Activation date: 10/2015
Control tower: no
ARTCC: JACKSONVILLE CENTER
FSS: SAINT PETERSBURG FLIGHT SERVICE STATION
Attendance: CONTINUOUS
Wind indicator: yes
Segmented circle: no

Heliport Communications

WX AWOS-3PT at ISM (9 nm N): 128.775 (407-847-0533)
WX ASOS at GIF (15 nm W): 133.675 (863-956-2097)
WX AWOS-3 at X07 (17 nm SW): 124.225 (863-678-1334)
WX ASOS at MCO (19 nm NE): PHONE 407-855-5235

Nearby radio navigation aids

VOR radial/distance  VOR name  Freq  Var
ORLr197/25.0ORLANDO VORTAC112.2000E
LALr071/30.0LAKELAND VORTAC116.0001E

Heliport Services

Runway Information

Helipad H1

Dimensions: 40 x 40 ft. / 12 x 12 m
Surface: concrete
Traffic pattern: leftleft

Heliport Ownership and Management from official FAA records

Ownership: Privately-owned
Owner: POINCIANA MEDICAL CENTER
325 CYPRESS PARKWAY
KISSIMMEE, FL 34758
Manager: JOANNA CONLEY
325 CYPRESS PARKWAY
KISSIMMEE, FL 34758

Additional Remarks

FOR CD CTC ORLANDO APCH AT 407-852-7553.

Instrument Procedures

There are no published instrument procedures at 24FD.

Some nearby airports with instrument procedures:

KISM - Kissimmee Gateway Airport (9 nm N)
KGIF - Winter Haven Regional Airport (15 nm W)
X07 - Lake Wales Municipal Airport (17 nm SW)
KMCO - Orlando International Airport (19 nm NE)
KBOW - Bartow Executive Airport (20 nm SW)
 
Loc | Ops | Rwys | IFR | FBO | Links
Com | Nav | Svcs | Stats | Notes
Aerial photo
No photo
 
Airport distance calculator
Flying to Poinciana Medical Center Heliport? Find the distance to fly.

From to 24FD

Sunrise and sunset
Times for 07-Dec-2019
 Local
(UTC-5)
 Zulu
(UTC)
Morning civil twilight06:4011:40
Sunrise07:0612:06
Sunset17:2922:29
Evening civil twilight17:5522:55

Current date and time
Zulu (UTC)  08-Dec-2019 04:13:11
Local (UTC-5)  07-Dec-2019 23:13:11
 
METAR
KISM 
9nm N 
080356Z AUTO 04004KT 10SM CLR 18/14 A3019 RMK AO2 SLP224 T01780139
KGIF 
15nm W 
080353Z AUTO 01004KT 10SM CLR 17/12 A3020 RMK AO2 SLP223 T01720122
KX07 
17nm SW 
080335Z AUTO 07006KT 10SM SCT100 16/13 A3019 RMK A01
KMCO 
18nm NE 
080353Z 03008KT 10SM FEW110 BKN250 18/13 A3018 RMK AO2 SLP217 T01830133
KBOW 
20nm SW 
080355Z AUTO 01004KT 10SM CLR 17/13 A3018 RMK AO2
TAF
KISM 
9nm N 
071739Z 0718/0818 04006KT P6SM FEW040 SCT100 SCT250 FM080000 02005KT P6SM SCT050 BKN100 FM081500 08007KT P6SM SCT035 BKN090
KMCO 
18nm NE 
072051Z 0721/0824 04006KT P6SM SCT100 SCT250 FM080000 02005KT P6SM SCT070 BKN100 FM081500 08007KT P6SM SCT035 BKN090
NOTAMs
Click for the latest NOTAMs
NOTAMs are issued by the DoD/FAA and will open in a separate window not controlled by AirNav.

 

 
 

Would you like to see your business listed on this page?

 If your business provides an interesting product or service to pilots, flight crews, aircraft, or users of the Poinciana Medical Center Heliport, you should consider listing it here.  To start the listing process, click on the button below
 
Add a business
 

Other Pages about Poinciana Medical Center Heliport

Update a link
 
Copyright © AirNav, LLC. All rights reserved. Privacy Policy  Contact